Time;durP1;ratioP1;P1;durP2;ratioP2;P2;SDS_P1;SDS_P2;PMS_P1;PMS_P2;Temp;Humidity;BMP_temperature;BMP_pressure;BME280_temperature;BME280_humidity;BME280_pressure;Samples;Min_cycle;Max_cycle;Signal;HPM_P1;HPM_P2
2022/12/29 00:01:30;;;;;;;;;5.00;5.00;;;;;10.00;89.47;99805.59;5066690;28;9980;-67
2022/12/29 00:03:57;;;;;;;;;3.00;3.00;;;;;10.03;89.52;99797.94;5063747;28;10086;-67
2022/12/29 00:06:24;;;;;;;;;5.25;4.25;;;;;10.08;89.06;99786.53;5078410;28;9894;-66
2022/12/29 00:08:50;;;;;;;;;4.75;4.75;;;;;10.13;88.77;99786.72;5079916;28;10012;-67
2022/12/29 00:11:20;;;;;;;;;5.00;5.00;;;;;10.11;88.38;99772.66;5077504;28;10104;-66
2022/12/29 00:16:32;;;;;;;;;4.75;4.75;;;;;10.14;87.85;99770.38;5081048;28;9933;-66
2022/12/29 00:19:00;;;;;;;;;5.00;5.00;;;;;10.11;87.84;99770.78;5070944;28;9908;-67
2022/12/29 00:35:33;;;;;;;;;4.75;2.00;;;;;10.20;87.10;99733.69;5075483;28;10082;-66
2022/12/29 00:46:18;;;;;;;;;2.00;2.00;;;;;10.22;86.34;99712.81;5070590;28;9982;-66
2022/12/29 00:51:30;;;;;;;;;4.50;1.75;;;;;10.18;86.06;99703.53;5070582;28;10080;-66
2022/12/29 00:53:57;;;;;;;;;4.25;2.00;;;;;10.17;86.25;99696.50;5067960;28;9971;-67
2022/12/29 00:56:23;;;;;;;;;1.50;1.50;;;;;10.22;85.85;99688.59;5067048;28;9846;-65
2022/12/29 00:58:50;;;;;;;;;1.50;1.50;;;;;10.21;85.70;99688.78;5081464;28;9920;-65
2022/12/29 01:01:16;;;;;;;;;2.00;2.00;;;;;10.27;85.60;99688.78;5074970;28;9942;-66
2022/12/29 01:03:44;;;;;;;;;1.00;1.00;;;;;10.34;85.38;99686.84;5085655;28;9846;-66
2022/12/29 01:06:11;;;;;;;;;2.00;2.00;;;;;10.35;84.90;99693.88;5075442;28;9755;-66
2022/12/29 01:08:38;;;;;;;;;1.00;1.00;;;;;10.38;84.93;99682.69;5069316;28;9870;-66
2022/12/29 01:11:07;;;;;;;;;3.50;3.00;;;;;10.38;84.72;99685.38;5065966;28;9842;-65
2022/12/29 01:13:35;;;;;;;;;2.00;2.00;;;;;10.35;84.79;99666.97;5065693;28;10630;-65
2022/12/29 01:16:06;;;;;;;;;2.25;1.25;;;;;10.33;84.62;99661.00;5068474;28;9762;-65
2022/12/29 01:18:33;;;;;;;;;1.75;1.75;;;;;10.35;84.62;99661.59;5059813;28;9852;-66
2022/12/29 01:21:02;;;;;;;;;1.25;1.00;;;;;10.26;84.92;99662.94;5064477;28;9728;-65
2022/12/29 01:23:29;;;;;;;;;2.00;2.00;;;;;10.24;85.73;99680.28;5068955;28;9741;-65
2022/12/29 01:25:55;;;;;;;;;2.25;2.00;;;;;10.17;85.49;99661.53;5068107;28;9852;-65
2022/12/29 01:28:23;;;;;;;;;2.00;2.00;;;;;10.22;85.38;99661.69;5068247;28;9735;-65
2022/12/29 01:30:51;;;;;;;;;2.00;2.00;;;;;10.24;85.45;99680.28;5070191;28;10538;-66
2022/12/29 01:33:18;;;;;;;;;1.00;1.00;;;;;10.26;85.39;99678.25;5071328;28;9805;-65
2022/12/29 01:35:44;;;;;;;;;1.00;1.00;;;;;10.28;85.12;99666.22;5071041;28;10525;-65
2022/12/29 01:38:11;;;;;;;;;1.25;1.25;;;;;10.26;85.78;99676.38;5070141;28;9897;-68
2022/12/29 01:40:46;;;;;;;;;2.00;2.00;;;;;10.25;85.38;99672.06;5068471;28;10039;-67
2022/12/29 01:43:14;;;;;;;;;1.00;1.00;;;;;10.25;85.59;99663.13;5070148;28;9907;-66
2022/12/29 01:45:50;;;;;;;;;1.00;1.00;;;;;10.25;85.73;99681.97;5068692;28;9736;-65
2022/12/29 01:48:18;;;;;;;;;1.00;1.00;;;;;10.27;85.68;99678.03;5065821;28;9748;-66
2022/12/29 01:50:53;;;;;;;;;2.00;2.00;;;;;10.11;86.34;99697.38;5067718;28;9812;-66
2022/12/29 01:53:27;;;;;;;;;2.50;2.50;;;;;10.09;86.03;99688.72;5070086;28;9999;-68
2022/12/29 01:55:59;;;;;;;;;4.00;2.00;;;;;10.06;86.33;99700.72;5069762;28;9915;-68
2022/12/29 01:58:32;;;;;;;;;2.00;2.00;;;;;10.06;85.84;99689.16;5068944;28;9813;-68
2022/12/29 02:00:59;;;;;;;;;2.00;2.00;;;;;10.08;85.76;99687.88;5068797;28;9971;-68
2022/12/29 02:03:28;;;;;;;;;2.25;2.25;;;;;10.10;85.79;99680.41;5069926;28;9903;-66
2022/12/29 02:06:02;;;;;;;;;1.00;1.00;;;;;10.16;85.13;99687.59;5069863;28;9781;-68
2022/12/29 02:08:29;;;;;;;;;1.75;1.75;;;;;10.28;84.48;99694.97;5069903;28;9770;-66
2022/12/29 02:10:57;;;;;;;;;1.75;1.75;;;;;10.22;84.53;99690.47;5069969;28;10445;-66
2022/12/29 02:13:25;;;;;;;;;2.75;1.50;;;;;10.19;84.60;99683.66;5072401;28;9833;-66
2022/12/29 02:16:13;;;;;;;;;2.75;2.75;;;;;10.22;84.54;99679.72;5072257;28;9757;-65
2022/12/29 02:18:49;;;;;;;;;3.00;3.00;;;;;10.25;84.21;99680.13;5072477;28;9895;-64
2022/12/29 02:21:53;;;;;;;;;2.00;2.00;;;;;10.21;84.18;99700.41;5072435;28;9906;-65
2022/12/29 02:24:38;;;;;;;;;2.50;1.25;;;;;10.15;84.30;99688.63;5072203;28;9897;-66
2022/12/29 02:27:34;;;;;;;;;4.00;2.00;;;;;10.16;84.14;99692.97;5072368;28;9939;-65
2022/12/29 02:30:34;;;;;;;;;0.00;0.00;;;;;10.20;84.45;99697.91;5072255;28;9858;-66
2022/12/29 02:33:52;;;;;;;;;1.00;1.00;;;;;10.10;84.14;99695.72;5047334;28;9671;-65
2022/12/29 02:36:24;;;;;;;;;0.75;0.75;;;;;10.22;83.42;99685.91;5049611;28;10598;-65
2022/12/29 02:39:21;;;;;;;;;0.00;0.00;;;;;10.18;83.51;99694.63;5072283;28;9735;-67
2022/12/29 02:42:07;;;;;;;;;1.00;1.00;;;;;10.21;83.55;99695.03;5072154;28;9792;-67
2022/12/29 02:44:46;;;;;;;;;0.25;0.25;;;;;10.24;83.23;99689.19;5071747;28;9945;-65
2022/12/29 02:47:57;;;;;;;;;0.00;0.00;;;;;10.18;83.51;99681.19;5072058;28;9905;-65
2022/12/29 02:50:36;;;;;;;;;0.75;0.75;;;;;10.16;83.76;99686.78;5071650;28;9926;-66
2022/12/29 02:53:17;;;;;;;;;0.00;0.00;;;;;10.13;83.89;99679.97;5072250;28;9652;-64
2022/12/29 02:55:50;;;;;;;;;1.75;1.00;;;;;10.14;83.96;99670.03;5071724;28;9750;-63
2022/12/29 02:58:19;;;;;;;;;0.00;0.00;;;;;10.16;83.91;99678.69;5071733;28;9676;-64
2022/12/29 03:00:54;;;;;;;;;0.00;0.00;;;;;10.07;84.00;99678.16;5071641;28;9766;-65
2022/12/29 03:03:33;;;;;;;;;0.00;0.00;;;;;10.12;83.96;99677.50;5073109;28;9579;-63
2022/12/29 03:06:11;;;;;;;;;0.00;0.00;;;;;10.10;84.33;99690.34;5073053;28;9507;-64
2022/12/29 03:09:10;;;;;;;;;0.75;0.00;;;;;10.08;83.87;99692.41;5071678;28;9575;-67
2022/12/29 03:12:11;;;;;;;;;0.00;0.00;;;;;9.87;84.55;99699.00;5072854;28;9659;-65
2022/12/29 03:17:58;;;;;;;;;0.00;0.00;;;;;9.81;84.86;99698.00;5071728;28;9590;-66
2022/12/29 03:20:31;;;;;;;;;0.00;0.00;;;;;9.83;84.62;99695.91;5071440;28;9648;-65
2022/12/29 03:23:01;;;;;;;;;0.00;0.00;;;;;9.79;84.84;99704.63;5071081;28;9763;-64
2022/12/29 03:25:35;;;;;;;;;1.00;0.00;;;;;9.76;84.48;99702.38;5070962;28;9798;-66
2022/12/29 03:28:23;;;;;;;;;1.50;0.50;;;;;9.81;84.87;99714.13;5071356;28;9835;-64
2022/12/29 03:30:50;;;;;;;;;0.00;0.00;;;;;9.84;85.21;99699.41;5071215;28;9739;-66
2022/12/29 03:33:23;;;;;;;;;1.00;1.00;;;;;9.88;84.97;99693.41;5070959;28;10552;-66
2022/12/29 03:35:53;;;;;;;;;0.50;0.50;;;;;9.84;84.91;99696.72;5070554;28;9807;-66
2022/12/29 03:38:33;;;;;;;;;0.00;0.00;;;;;9.90;84.35;99688.63;5072142;28;10094;-67
2022/12/29 03:41:04;;;;;;;;;0.50;0.00;;;;;9.89;84.17;99691.56;5072226;28;9736;-68
2022/12/29 03:43:33;;;;;;;;;0.00;0.00;;;;;9.78;83.89;99689.56;5070792;28;9817;-68
2022/12/29 03:46:00;;;;;;;;;0.00;0.00;;;;;9.73;83.56;99675.94;5070462;28;9806;-68
2022/12/29 03:48:27;;;;;;;;;2.00;1.00;;;;;9.80;83.58;99677.56;5070502;28;10514;-67
2022/12/29 03:50:55;;;;;;;;;1.00;1.00;;;;;9.84;83.38;99677.91;5070679;28;9912;-65
2022/12/29 03:53:22;;;;;;;;;1.75;1.00;;;;;9.82;82.99;99675.47;5070586;28;9754;-66
2022/12/29 03:55:49;;;;;;;;;0.25;0.00;;;;;9.85;82.86;99685.78;5070410;28;10636;-66
2022/12/29 03:58:15;;;;;;;;;0.75;0.00;;;;;9.87;82.52;99677.50;5070499;28;10011;-67
2022/12/29 04:01:10;;;;;;;;;1.00;1.00;;;;;9.85;82.27;99683.09;5055545;28;10669;-66
2022/12/29 04:03:38;;;;;;;;;4.50;0.50;;;;;9.83;82.21;99685.16;5070468;28;9826;-65
2022/12/29 04:06:05;;;;;;;;;0.00;0.00;;;;;9.83;82.41;99693.22;5071407;28;9726;-64
2022/12/29 04:08:40;;;;;;;;;0.25;0.25;;;;;9.82;82.23;99696.97;5070585;28;9666;-64
2022/12/29 04:11:06;;;;;;;;;3.50;1.00;;;;;9.85;81.86;99699.22;5070848;28;9665;-65
2022/12/29 04:13:33;;;;;;;;;0.00;0.00;;;;;9.84;81.99;99697.59;5070503;28;9749;-66
2022/12/29 04:16:00;;;;;;;;;1.00;0.25;;;;;9.88;81.13;99698.78;5070099;28;9612;-65
2022/12/29 04:18:27;;;;;;;;;0.00;0.00;;;;;9.93;81.21;99698.13;5071378;28;9744;-66
2022/12/29 04:21:00;;;;;;;;;0.00;0.00;;;;;9.85;80.78;99699.22;5070149;28;9737;-67
2022/12/29 04:23:29;;;;;;;;;1.00;1.00;;;;;9.83;81.12;99705.84;5070103;28;9731;-67
2022/12/29 04:25:56;;;;;;;;;2.00;0.50;;;;;9.83;81.17;99698.59;5069840;28;9679;-65
2022/12/29 04:28:24;;;;;;;;;2.00;1.00;;;;;9.79;80.65;99694.69;5070062;28;10472;-65
2022/12/29 04:31:08;;;;;;;;;1.00;0.00;;;;;9.80;80.62;99703.59;5069899;28;10614;-66
2022/12/29 04:33:38;;;;;;;;;0.00;0.00;;;;;9.82;79.87;99698.81;5069844;28;9898;-66
2022/12/29 04:36:05;;;;;;;;;1.00;0.00;;;;;9.73;79.78;99708.19;5069331;28;9762;-66
2022/12/29 04:38:33;;;;;;;;;2.50;1.75;;;;;9.72;79.54;99709.22;5070059;28;9768;-67
2022/12/29 04:41:03;;;;;;;;;0.00;0.00;;;;;9.79;79.57;99707.31;5070275;28;9998;-66
2022/12/29 04:43:30;;;;;;;;;1.00;1.00;;;;;9.79;79.51;99712.69;5070515;28;9737;-66
2022/12/29 04:46:15;;;;;;;;;0.25;0.00;;;;;9.79;78.88;99700.06;5072992;28;9825;-66
2022/12/29 04:48:51;;;;;;;;;0.00;0.00;;;;;9.81;78.98;99699.88;5071597;28;9817;-66
2022/12/29 04:51:27;;;;;;;;;1.25;1.25;;;;;9.77;78.83;99702.16;5071105;28;9816;-65
2022/12/29 04:53:54;;;;;;;;;1.00;1.00;;;;;9.70;78.39;99705.94;5071771;28;10002;-67
2022/12/29 04:56:22;;;;;;;;;1.50;0.00;;;;;9.56;78.74;99714.09;5053688;28;10541;-67
2022/12/29 04:58:48;;;;;;;;;0.00;0.00;;;;;9.55;78.77;99711.59;5070086;28;9810;-67
2022/12/29 05:01:15;;;;;;;;;0.00;0.00;;;;;9.56;78.99;99716.78;5070783;28;9752;-66
2022/12/29 05:03:42;;;;;;;;;1.50;1.00;;;;;9.59;78.40;99713.63;5070548;28;9984;-64
2022/12/29 05:06:09;;;;;;;;;0.00;0.00;;;;;9.56;78.81;99715.91;5071214;28;9860;-66
2022/12/29 05:08:36;;;;;;;;;2.00;1.00;;;;;9.50;78.46;99725.69;5070089;28;9892;-69
2022/12/29 05:11:03;;;;;;;;;0.00;0.00;;;;;9.49;78.86;99723.22;5070042;28;9932;-65
2022/12/29 05:13:30;;;;;;;;;2.00;2.00;;;;;9.60;79.14;99711.75;5069767;28;9910;-67
2022/12/29 05:15:56;;;;;;;;;1.75;1.00;;;;;9.59;79.08;99718.19;5069296;28;10078;-66
2022/12/29 05:18:23;;;;;;;;;1.50;0.75;;;;;9.55;79.34;99725.03;5070087;28;9825;-66
2022/12/29 05:20:50;;;;;;;;;0.00;0.00;;;;;9.59;78.91;99723.56;5069684;28;9988;-66
2022/12/29 05:23:19;;;;;;;;;2.00;0.50;;;;;9.52;79.40;99720.06;5069432;28;9907;-65
2022/12/29 05:25:53;;;;;;;;;0.00;0.00;;;;;9.58;79.32;99736.19;5069182;28;9964;-66
2022/12/29 05:28:27;;;;;;;;;1.50;0.00;;;;;9.59;79.83;99720.88;5069311;28;9784;-65
2022/12/29 05:31:02;;;;;;;;;1.00;1.00;;;;;9.61;79.51;99743.00;5069216;28;9983;-66
2022/12/29 05:33:29;;;;;;;;;0.00;0.00;;;;;9.53;79.75;99733.31;5069172;28;10013;-66
2022/12/29 05:35:56;;;;;;;;;1.00;0.75;;;;;9.61;79.36;99734.94;5068928;28;9897;-66
2022/12/29 05:38:23;;;;;;;;;0.00;0.00;;;;;9.60;79.83;99749.38;5069649;28;9993;-67
2022/12/29 05:40:49;;;;;;;;;0.00;0.00;;;;;9.58;80.07;99749.59;5071216;28;9732;-67
2022/12/29 05:43:38;;;;;;;;;1.00;1.00;;;;;9.57;79.58;99741.78;5070856;28;9839;-67
2022/12/29 05:46:28;;;;;;;;;1.00;1.00;;;;;9.56;79.93;99769.66;5071281;28;9839;-66
2022/12/29 05:49:24;;;;;;;;;1.00;1.00;;;;;9.50;79.88;99759.78;5072917;28;9834;-66
2022/12/29 05:51:54;;;;;;;;;1.75;0.50;;;;;9.53;79.99;99765.56;5073473;28;9849;-67
2022/12/29 05:54:21;;;;;;;;;0.25;0.25;;;;;9.53;80.41;99756.66;5072890;28;9989;-67
2022/12/29 05:56:48;;;;;;;;;0.50;0.50;;;;;9.54;80.47;99750.25;5073168;28;9895;-67
2022/12/29 05:59:14;;;;;;;;;2.00;0.50;;;;;9.45;80.90;99762.28;5073169;28;9812;-66
2022/12/29 06:01:41;;;;;;;;;1.50;1.00;;;;;9.44;80.86;99755.25;5072814;28;9795;-67
2022/12/29 06:04:08;;;;;;;;;2.00;0.00;;;;;9.47;81.41;99747.59;5072371;28;9999;-66
2022/12/29 06:06:35;;;;;;;;;0.00;0.00;;;;;9.51;80.81;99759.56;5072791;28;9825;-67
2022/12/29 06:09:02;;;;;;;;;1.00;1.00;;;;;9.54;80.47;99766.38;5072640;28;10033;-67
2022/12/29 06:11:28;;;;;;;;;3.50;2.00;;;;;9.49;81.11;99752.75;5072468;28;9904;-67
2022/12/29 06:13:57;;;;;;;;;2.00;2.00;;;;;9.47;81.32;99762.88;5072492;28;9998;-64
2022/12/29 06:16:24;;;;;;;;;2.75;0.75;;;;;9.49;80.96;99776.94;5072155;28;10119;-68
2022/12/29 06:18:55;;;;;;;;;1.00;1.00;;;;;9.44;81.52;99774.91;5072436;28;10013;-66
2022/12/29 06:21:22;;;;;;;;;5.75;1.00;;;;;9.45;81.31;99773.03;5073725;28;9979;-67
2022/12/29 06:23:48;;;;;;;;;3.50;2.00;;;;;9.44;81.18;99774.91;5072180;28;9986;-67
2022/12/29 06:26:15;;;;;;;;;5.75;3.25;;;;;9.49;80.93;99803.81;5072175;28;10061;-67
2022/12/29 06:28:42;;;;;;;;;1.75;1.00;;;;;9.32;81.13;99779.28;5072289;28;10055;-67
2022/12/29 06:31:10;;;;;;;;;5.00;1.00;;;;;9.30;80.81;99773.28;5072019;28;10000;-66
2022/12/29 06:33:38;;;;;;;;;1.50;0.00;;;;;9.33;80.60;99795.19;5073559;28;9876;-67
2022/12/29 06:36:04;;;;;;;;;3.00;0.00;;;;;9.35;80.66;99790.41;5071852;28;10644;-65
2022/12/29 06:38:31;;;;;;;;;1.25;0.00;;;;;9.39;80.55;99798.84;5072216;28;9979;-64
2022/12/29 06:40:58;;;;;;;;;2.00;1.00;;;;;9.43;79.66;99797.41;5072128;28;10052;-64
2022/12/29 06:43:35;;;;;;;;;1.25;0.00;;;;;9.41;80.16;99799.50;5073069;28;9864;-67
2022/12/29 06:46:18;;;;;;;;;2.25;1.00;;;;;9.37;79.88;99793.72;5072991;28;10686;-65
2022/12/29 06:48:45;;;;;;;;;1.00;0.50;;;;;9.36;79.40;99796.63;5073320;28;10218;-65
2022/12/29 06:51:11;;;;;;;;;2.00;0.00;;;;;9.33;79.73;99800.53;5073177;28;10168;-67
2022/12/29 06:53:38;;;;;;;;;2.00;1.75;;;;;9.32;79.38;99804.28;5073172;28;10961;-67
2022/12/29 06:56:04;;;;;;;;;2.00;1.75;;;;;9.33;79.65;99802.41;5072613;28;10186;-66
2022/12/29 06:58:31;;;;;;;;;0.00;0.00;;;;;9.39;79.69;99802.38;5072556;28;10061;-65
2022/12/29 07:00:57;;;;;;;;;0.00;0.00;;;;;9.43;79.58;99799.25;5073051;28;9967;-65
2022/12/29 07:03:24;;;;;;;;;5.00;2.00;;;;;9.34;79.29;99783.38;5073381;28;9914;-64
2022/12/29 07:05:51;;;;;;;;;2.50;1.25;;;;;9.34;78.84;99787.94;5072931;28;9904;-65
2022/12/29 07:08:17;;;;;;;;;2.50;1.75;;;;;9.39;79.03;99791.63;5072989;28;10001;-66
2022/12/29 07:10:43;;;;;;;;;2.75;2.00;;;;;9.35;78.25;99797.63;5072717;28;10176;-66
2022/12/29 07:13:10;;;;;;;;;2.00;1.00;;;;;9.35;78.56;99798.47;5072770;28;10792;-65
2022/12/29 07:15:37;;;;;;;;;3.50;2.25;;;;;9.36;77.87;99789.38;5072272;28;9885;-65
2022/12/29 07:18:04;;;;;;;;;3.50;1.50;;;;;9.34;78.19;99802.19;5072580;28;10173;-65
2022/12/29 07:20:31;;;;;;;;;2.50;1.00;;;;;9.28;77.66;99792.31;5072616;28;10064;-65
2022/12/29 07:22:58;;;;;;;;;4.00;4.00;;;;;9.33;77.51;99797.03;5072769;28;10090;-68
2022/12/29 07:25:24;;;;;;;;;2.00;1.00;;;;;9.33;78.16;99802.41;5072263;28;10032;-67
2022/12/29 07:27:51;;;;;;;;;3.00;2.00;;;;;9.30;77.27;99802.81;5072539;28;10151;-67
2022/12/29 07:30:17;;;;;;;;;5.00;2.00;;;;;9.27;77.31;99803.25;5072280;28;10135;-66
2022/12/29 07:32:43;;;;;;;;;1.25;1.00;;;;;9.35;77.28;99801.16;5072452;28;10190;-65
2022/12/29 07:35:10;;;;;;;;;1.00;1.00;;;;;9.38;76.71;99810.66;5071923;28;10073;-65
2022/12/29 07:37:36;;;;;;;;;1.75;0.00;;;;;9.36;76.63;99799.31;5072181;28;10087;-66
2022/12/29 07:40:04;;;;;;;;;2.50;2.50;;;;;9.39;76.50;99809.59;5072438;28;9994;-65
2022/12/29 07:42:31;;;;;;;;;0.75;0.75;;;;;9.33;76.59;99807.78;5072216;28;10008;-65
2022/12/29 07:44:58;;;;;;;;;6.75;2.00;;;;;9.30;76.56;99806.34;5070390;28;10790;-65
2022/12/29 07:47:29;;;;;;;;;0.50;0.25;;;;;9.24;76.51;99812.56;5072231;28;10144;-65
2022/12/29 07:49:56;;;;;;;;;0.50;0.25;;;;;9.25;76.92;99810.69;5071987;28;9930;-65
2022/12/29 07:52:22;;;;;;;;;1.00;1.00;;;;;9.38;76.46;99813.34;5071711;28;9991;-66
2022/12/29 07:54:49;;;;;;;;;1.00;0.00;;;;;9.47;76.46;99813.91;5071856;28;10109;-65
2022/12/29 07:57:15;;;;;;;;;2.00;1.00;;;;;9.47;75.88;99811.22;5072058;28;9987;-69
2022/12/29 07:59:42;;;;;;;;;0.00;0.00;;;;;9.46;76.11;99815.78;5071842;28;10037;-65
2022/12/29 08:02:11;;;;;;;;;1.00;1.00;;;;;9.35;76.70;99827.19;5071626;28;10086;-66
2022/12/29 08:04:38;;;;;;;;;2.00;0.50;;;;;9.27;77.95;99825.53;5071640;28;9979;-67
2022/12/29 08:07:05;;;;;;;;;0.25;0.00;;;;;9.20;78.57;99819.38;5071843;28;10222;-67
2022/12/29 08:09:31;;;;;;;;;0.00;0.00;;;;;9.19;79.21;99819.56;5071270;28;10014;-67
2022/12/29 08:11:58;;;;;;;;;0.00;0.00;;;;;9.21;79.40;99818.34;5068870;28;10833;-66
2022/12/29 08:14:24;;;;;;;;;1.50;1.00;;;;;9.19;79.89;99825.78;5065371;28;10153;-67
2022/12/29 08:16:50;;;;;;;;;1.00;1.00;;;;;9.09;80.36;99822.72;5069811;28;10264;-66
2022/12/29 08:19:17;;;;;;;;;1.25;0.50;;;;;9.12;80.25;99824.97;5063412;28;10067;-66
2022/12/29 08:21:43;;;;;;;;;2.00;0.00;;;;;9.15;80.50;99821.84;5071291;28;10143;-67
2022/12/29 08:24:10;;;;;;;;;0.50;0.50;;;;;9.15;81.45;99825.41;5066487;28;10054;-67
2022/12/29 08:26:36;;;;;;;;;7.00;1.00;;;;;9.23;81.39;99813.56;5058616;28;10069;-67
2022/12/29 08:29:03;;;;;;;;;1.00;1.00;;;;;9.25;81.20;99811.53;5061302;28;10132;-67
2022/12/29 08:31:29;;;;;;;;;2.50;1.50;;;;;9.16;81.13;99820.84;5067171;28;10143;-66
2022/12/29 08:33:56;;;;;;;;;1.75;1.50;;;;;9.09;81.70;99818.16;5065380;28;10151;-65
2022/12/29 08:36:22;;;;;;;;;1.00;1.00;;;;;9.07;81.43;99819.41;5062322;28;10064;-66
2022/12/29 08:38:49;;;;;;;;;1.00;0.75;;;;;9.02;81.74;99828.06;5069962;28;10053;-65
2022/12/29 08:41:15;;;;;;;;;1.25;0.00;;;;;8.97;82.00;99829.75;5063424;28;10145;-65
2022/12/29 08:43:46;;;;;;;;;2.00;1.00;;;;;8.90;82.14;99817.16;5063341;28;10133;-69
2022/12/29 08:46:13;;;;;;;;;0.00;0.00;;;;;8.89;82.56;99818.19;5062472;28;10083;-65
2022/12/29 08:48:40;;;;;;;;;0.75;0.75;;;;;8.85;82.94;99827.69;5066274;28;10120;-66
2022/12/29 08:51:07;;;;;;;;;2.50;1.25;;;;;8.85;82.92;99827.69;5067411;28;10133;-65
2022/12/29 08:53:34;;;;;;;;;4.25;1.00;;;;;8.87;83.24;99836.38;5070107;28;10318;-65
2022/12/29 08:56:01;;;;;;;;;1.00;0.00;;;;;8.84;83.11;99841.31;5062211;28;10254;-66
2022/12/29 08:58:39;;;;;;;;;3.00;1.50;;;;;8.78;83.71;99836.78;5067711;28;10162;-65
2022/12/29 09:01:06;;;;;;;;;1.00;1.00;;;;;8.82;83.88;99846.06;5059332;28;10318;-66
2022/12/29 09:03:33;;;;;;;;;1.00;1.00;;;;;8.81;83.98;99850.59;5063319;28;10922;-66
2022/12/29 09:06:20;;;;;;;;;1.00;1.00;;;;;8.78;84.04;99839.47;5064705;28;10131;-66
2022/12/29 09:08:46;;;;;;;;;2.00;1.25;;;;;8.78;84.33;99851.00;5070443;28;10039;-66
2022/12/29 09:11:22;;;;;;;;;5.25;3.25;;;;;8.71;85.29;99862.78;5070333;28;10269;-64
2022/12/29 09:13:50;;;;;;;;;3.00;3.00;;;;;8.73;85.36;99866.09;5070273;28;10269;-66
2022/12/29 09:16:17;;;;;;;;;4.25;2.50;;;;;8.76;85.47;99865.69;5069992;28;10137;-66
2022/12/29 09:18:44;;;;;;;;;2.00;1.75;;;;;8.80;84.77;99877.66;5070346;28;10290;-67
2022/12/29 09:21:12;;;;;;;;;4.00;3.00;;;;;8.77;84.81;99886.94;5072085;28;10224;-68
2022/12/29 09:23:38;;;;;;;;;5.00;5.00;;;;;8.79;85.40;99879.53;5063721;28;10376;-68
2022/12/29 09:26:05;;;;;;;;;2.00;1.75;;;;;8.84;85.54;99895.00;5064716;28;10414;-68
2022/12/29 09:28:31;;;;;;;;;2.00;2.00;;;;;8.86;85.10;99895.59;5073194;28;10326;-69
2022/12/29 09:30:59;;;;;;;;;6.00;4.00;;;;;8.86;85.60;99896.44;5073766;28;11032;-68
2022/12/29 09:33:26;;;;;;;;;3.00;2.00;;;;;8.79;85.34;99906.34;5069577;28;10354;-69
2022/12/29 09:35:55;;;;;;;;;2.00;1.00;;;;;8.84;85.69;99911.09;5069554;28;10265;-68
2022/12/29 09:38:23;;;;;;;;;5.25;3.00;;;;;8.89;85.63;99912.13;5070061;28;10283;-68
2022/12/29 09:40:55;;;;;;;;;1.25;1.25;;;;;8.96;85.42;99922.06;5069375;28;10181;-66
2022/12/29 09:43:37;;;;;;;;;2.00;2.00;;;;;8.96;85.91;99922.06;5066193;28;10127;-69
2022/12/29 09:46:23;;;;;;;;;4.00;4.00;;;;;8.99;85.61;99924.31;5061658;28;11109;-66
2022/12/29 09:48:59;;;;;;;;;2.00;1.75;;;;;8.94;85.97;99926.78;5068776;28;10335;-65
2022/12/29 09:51:27;;;;;;;;;1.75;1.00;;;;;9.00;86.13;99931.34;5087840;28;10143;-66
2022/12/29 09:53:58;;;;;;;;;1.00;1.00;;;;;9.07;85.73;99946.38;5089896;28;10928;-66
2022/12/29 09:56:26;;;;;;;;;4.00;2.00;;;;;9.07;85.91;99948.25;5087823;28;10331;-65
2022/12/29 09:58:57;;;;;;;;;5.75;4.75;;;;;9.08;85.74;99966.03;5066516;28;10262;-66
2022/12/29 10:01:57;;;;;;;;;5.00;2.00;;;;;9.07;85.77;99961.69;5062201;28;10301;-66
2022/12/29 10:04:27;;;;;;;;;1.00;1.00;;;;;9.09;85.98;99963.13;5060092;28;10157;-66
2022/12/29 10:07:03;;;;;;;;;1.00;1.00;;;;;9.16;85.59;99969.34;5059125;28;10754;-67
2022/12/29 10:10:14;;;;;;;;;2.00;1.50;;;;;9.05;85.83;99983.38;5062302;28;10113;-68
2022/12/29 10:13:01;;;;;;;;;5.25;4.00;;;;;9.13;86.13;99993.09;5059461;28;10257;-68
2022/12/29 10:15:56;;;;;;;;;1.00;1.00;;;;;9.18;85.84;99981.72;5063144;28;10368;-68
2022/12/29 10:18:53;;;;;;;;;9.50;3.00;;;;;9.27;86.11;99991.22;5060781;28;10898;-67
2022/12/29 10:21:38;;;;;;;;;2.50;1.75;;;;;9.27;85.62;99994.72;5058428;28;10248;-66
2022/12/29 10:24:10;;;;;;;;;2.00;2.00;;;;;9.30;85.60;100002.38;5066141;28;10193;-68
2022/12/29 10:26:42;;;;;;;;;6.50;2.00;;;;;9.31;85.58;100017.44;5063035;28;10075;-67
2022/12/29 10:29:18;;;;;;;;;1.25;1.00;;;;;9.34;85.26;100022.41;5073249;28;10222;-67
2022/12/29 10:31:53;;;;;;;;;1.50;1.00;;;;;9.39;85.00;100021.78;5069636;28;9924;-66
2022/12/29 10:34:44;;;;;;;;;3.00;2.00;;;;;9.40;85.06;100018.09;5061858;28;10057;-67
2022/12/29 10:37:41;;;;;;;;;3.50;3.00;;;;;9.37;84.88;100026.56;5067980;28;10202;-67
2022/12/29 10:40:24;;;;;;;;;2.00;2.00;;;;;9.48;85.41;100028.63;5066990;28;10181;-68
2022/12/29 10:42:56;;;;;;;;;2.00;2.00;;;;;9.42;84.66;100042.88;5076405;28;10085;-66
2022/12/29 10:45:29;;;;;;;;;3.25;2.50;;;;;9.43;84.96;100052.59;5081450;28;9996;-66
2022/12/29 10:48:11;;;;;;;;;3.50;3.00;;;;;9.43;84.43;100051.75;5088282;28;10071;-67
2022/12/29 10:50:42;;;;;;;;;4.00;3.00;;;;;9.39;84.81;100048.66;5080995;28;10375;-68
2022/12/29 10:53:18;;;;;;;;;9.00;6.00;;;;;9.44;84.04;100056.09;5080758;28;10191;-66
2022/12/29 10:55:45;;;;;;;;;5.75;2.50;;;;;9.47;84.08;100044.94;5072061;28;10300;-67
2022/12/29 10:58:14;;;;;;;;;4.50;2.50;;;;;9.46;83.84;100065.63;5077058;28;9846;-65
2022/12/29 11:00:53;;;;;;;;;5.25;4.25;;;;;9.54;83.20;100062.72;5072772;28;10131;-65
2022/12/29 11:03:38;;;;;;;;;2.00;1.00;;;;;9.58;83.07;100066.66;5077322;28;10069;-65
2022/12/29 11:06:24;;;;;;;;;7.00;4.00;;;;;9.56;82.71;100073.25;5070750;28;10011;-65
2022/12/29 11:08:58;;;;;;;;;1.00;1.00;;;;;9.46;81.92;100081.72;5080399;28;10002;-66
2022/12/29 11:11:32;;;;;;;;;5.75;2.75;;;;;9.45;81.63;100085.47;5091327;28;10759;-66
2022/12/29 11:14:23;;;;;;;;;4.25;2.50;;;;;9.47;81.27;100094.13;5077708;28;10175;-66
2022/12/29 11:17:01;;;;;;;;;6.00;2.50;;;;;9.45;80.96;100087.31;5055517;28;10991;-67
2022/12/29 11:19:32;;;;;;;;;1.00;0.50;;;;;9.51;80.35;100086.47;5082307;28;10146;-67
2022/12/29 11:22:24;;;;;;;;;4.25;2.00;;;;;9.55;79.75;100110.03;5088077;28;10001;-68
2022/12/29 11:24:52;;;;;;;;;2.75;1.50;;;;;9.49;79.82;100102.81;5059908;28;10103;-67
2022/12/29 11:27:26;;;;;;;;;1.00;1.00;;;;;9.48;80.38;100113.75;5063908;28;10069;-68
2022/12/29 11:29:53;;;;;;;;;1.50;1.00;;;;;9.51;80.32;100107.97;5063888;28;9910;-68
2022/12/29 11:32:23;;;;;;;;;2.00;1.00;;;;;9.44;80.38;100125.94;5063525;28;10038;-69
2022/12/29 11:34:55;;;;;;;;;1.00;0.75;;;;;9.40;80.72;100121.00;5062501;28;9907;-67
2022/12/29 11:37:27;;;;;;;;;1.75;1.00;;;;;9.43;80.85;100119.75;5067411;28;9997;-67
2022/12/29 11:40:17;;;;;;;;;6.00;1.00;;;;;9.51;80.53;100127.59;5064317;28;10074;-67
2022/12/29 11:42:51;;;;;;;;;2.50;2.00;;;;;9.48;80.81;100127.19;5063380;28;10072;-68
2022/12/29 11:45:21;;;;;;;;;2.00;2.00;;;;;9.51;80.84;100140.22;5061353;28;10239;-67
2022/12/29 11:47:51;;;;;;;;;4.25;1.25;;;;;9.52;80.98;100129.28;5066674;28;10030;-67
2022/12/29 11:50:22;;;;;;;;;1.50;0.00;;;;;9.57;80.78;100139.41;5087452;28;10066;-67
2022/12/29 11:52:57;;;;;;;;;1.25;1.25;;;;;9.64;80.37;100153.66;5076872;28;9886;-68
2022/12/29 11:55:26;;;;;;;;;1.00;1.00;;;;;9.53;79.56;100157.78;5081487;28;10019;-68
2022/12/29 11:57:57;;;;;;;;;1.00;1.00;;;;;9.42;78.77;100155.69;5074012;28;9887;-68
2022/12/29 12:00:25;;;;;;;;;0.75;0.25;;;;;9.42;78.58;100169.13;5076520;28;9888;-67
2022/12/29 12:03:18;;;;;;;;;5.00;1.00;;;;;9.52;78.81;100169.59;5071510;28;9987;-67
2022/12/29 12:05:53;;;;;;;;;2.25;1.25;;;;;9.45;78.48;100166.03;5070019;28;10791;-66
2022/12/29 12:08:35;;;;;;;;;1.00;1.00;;;;;9.43;78.22;100162.72;5071308;28;9968;-67
2022/12/29 12:11:11;;;;;;;;;4.25;0.50;;;;;9.48;77.55;100164.78;5071156;28;9962;-67
2022/12/29 12:14:00;;;;;;;;;0.00;0.00;;;;;9.62;77.35;100161.94;5070367;28;10061;-66
2022/12/29 12:16:40;;;;;;;;;0.00;0.00;;;;;9.59;77.62;100172.25;5070224;28;10022;-66
2022/12/29 12:19:24;;;;;;;;;2.50;0.00;;;;;9.47;77.51;100176.56;5071452;28;9910;-65
2022/12/29 12:21:58;;;;;;;;;0.75;0.75;;;;;9.52;77.05;100183.00;5071586;28;10048;-67
2022/12/29 12:24:37;;;;;;;;;0.00;0.00;;;;;9.48;76.18;100176.41;5071152;28;9968;-67
2022/12/29 12:27:09;;;;;;;;;2.00;2.00;;;;;9.39;76.17;100175.72;5071261;28;9794;-67
2022/12/29 12:30:09;;;;;;;;;4.25;1.00;;;;;9.45;76.48;100176.78;5071166;28;9970;-68
2022/12/29 12:32:42;;;;;;;;;0.75;0.00;;;;;9.48;76.14;100180.91;5071164;28;10068;-67
2022/12/29 12:35:26;;;;;;;;;1.00;1.00;;;;;9.44;76.17;100185.88;5070916;28;9967;-67
2022/12/29 12:38:16;;;;;;;;;0.00;0.00;;;;;9.49;75.84;100177.22;5071336;28;10008;-67